sensor_id;sensor_type;location;lat;lon;timestamp;temperature;humidity
22319;DHT22;11327;52.334;9.506;2023-07-29T00:01:41;19.50;99.90
22319;DHT22;11327;52.334;9.506;2023-07-29T00:05:01;19.50;99.90
22319;DHT22;11327;52.334;9.506;2023-07-29T00:08:22;19.40;99.90
22319;DHT22;11327;52.334;9.506;2023-07-29T00:11:43;19.40;99.90
22319;DHT22;11327;52.334;9.506;2023-07-29T00:15:04;19.40;99.90
22319;DHT22;11327;52.334;9.506;2023-07-29T00:18:25;19.30;99.90
22319;DHT22;11327;52.334;9.506;2023-07-29T00:21:46;19.30;99.90
22319;DHT22;11327;52.334;9.506;2023-07-29T00:25:07;19.30;99.90
22319;DHT22;11327;52.334;9.506;2023-07-29T00:28:27;19.30;99.90
22319;DHT22;11327;52.334;9.506;2023-07-29T00:31:48;19.20;99.90
22319;DHT22;11327;52.334;9.506;2023-07-29T00:35:09;19.20;99.90
22319;DHT22;11327;52.334;9.506;2023-07-29T00:38:30;19.10;99.90
22319;DHT22;11327;52.334;9.506;2023-07-29T00:41:50;19.10;99.90
22319;DHT22;11327;52.334;9.506;2023-07-29T00:45:12;19.10;99.90
22319;DHT22;11327;52.334;9.506;2023-07-29T00:48:33;19.10;99.90
22319;DHT22;11327;52.334;9.506;2023-07-29T00:51:53;19.10;99.90
22319;DHT22;11327;52.334;9.506;2023-07-29T00:55:14;18.90;99.90
22319;DHT22;11327;52.334;9.506;2023-07-29T00:58:35;18.90;99.90
22319;DHT22;11327;52.334;9.506;2023-07-29T01:01:56;19.00;99.90
22319;DHT22;11327;52.334;9.506;2023-07-29T01:05:17;18.90;99.90
22319;DHT22;11327;52.334;9.506;2023-07-29T01:15:54;18.90;99.90
22319;DHT22;11327;52.334;9.506;2023-07-29T01:23:00;18.90;99.90
22319;DHT22;11327;52.334;9.506;2023-07-29T01:26:20;18.90;99.90
22319;DHT22;11327;52.334;9.506;2023-07-29T01:29:41;18.90;99.90
22319;DHT22;11327;52.334;9.506;2023-07-29T01:33:13;19.10;99.90
22319;DHT22;11327;52.334;9.506;2023-07-29T01:36:33;19.00;99.90
22319;DHT22;11327;52.334;9.506;2023-07-29T01:39:56;19.10;99.90
22319;DHT22;11327;52.334;9.506;2023-07-29T01:43:18;19.20;99.90
22319;DHT22;11327;52.334;9.506;2023-07-29T01:46:40;19.20;99.90
22319;DHT22;11327;52.334;9.506;2023-07-29T01:50:01;19.20;99.90
22319;DHT22;11327;52.334;9.506;2023-07-29T01:53:24;19.20;99.90
22319;DHT22;11327;52.334;9.506;2023-07-29T01:56:44;19.30;99.90
22319;DHT22;11327;52.334;9.506;2023-07-29T02:00:06;19.30;99.90
22319;DHT22;11327;52.334;9.506;2023-07-29T02:03:27;19.40;99.90
22319;DHT22;11327;52.334;9.506;2023-07-29T02:06:48;19.50;99.90
22319;DHT22;11327;52.334;9.506;2023-07-29T02:10:09;19.50;99.90
22319;DHT22;11327;52.334;9.506;2023-07-29T02:13:30;19.50;99.90
22319;DHT22;11327;52.334;9.506;2023-07-29T02:16:50;19.40;99.90
22319;DHT22;11327;52.334;9.506;2023-07-29T02:20:11;19.40;99.90
22319;DHT22;11327;52.334;9.506;2023-07-29T02:23:32;19.40;99.90
22319;DHT22;11327;52.334;9.506;2023-07-29T02:26:53;19.40;99.90
22319;DHT22;11327;52.334;9.506;2023-07-29T02:30:14;19.30;99.90
22319;DHT22;11327;52.334;9.506;2023-07-29T02:33:35;19.40;99.90
22319;DHT22;11327;52.334;9.506;2023-07-29T02:36:56;19.30;99.90
22319;DHT22;11327;52.334;9.506;2023-07-29T02:40:16;19.40;99.90
22319;DHT22;11327;52.334;9.506;2023-07-29T02:43:37;19.40;99.90
22319;DHT22;11327;52.334;9.506;2023-07-29T02:46:58;19.50;99.90
22319;DHT22;11327;52.334;9.506;2023-07-29T02:50:19;19.60;99.90
22319;DHT22;11327;52.334;9.506;2023-07-29T02:53:40;19.70;99.90
22319;DHT22;11327;52.334;9.506;2023-07-29T02:57:00;19.70;99.90
22319;DHT22;11327;52.334;9.506;2023-07-29T03:00:21;19.70;99.90
22319;DHT22;11327;52.334;9.506;2023-07-29T03:03:42;19.60;99.90
22319;DHT22;11327;52.334;9.506;2023-07-29T03:07:03;19.60;99.90
22319;DHT22;11327;52.334;9.506;2023-07-29T03:10:24;19.60;99.90
22319;DHT22;11327;52.334;9.506;2023-07-29T03:13:44;19.50;99.90
22319;DHT22;11327;52.334;9.506;2023-07-29T03:17:05;19.50;99.90
22319;DHT22;11327;52.334;9.506;2023-07-29T03:20:26;19.40;99.90
22319;DHT22;11327;52.334;9.506;2023-07-29T03:23:47;19.40;99.90
22319;DHT22;11327;52.334;9.506;2023-07-29T03:27:07;19.50;99.90
22319;DHT22;11327;52.334;9.506;2023-07-29T03:30:30;19.50;99.90
22319;DHT22;11327;52.334;9.506;2023-07-29T03:33:51;19.50;99.90
22319;DHT22;11327;52.334;9.506;2023-07-29T03:37:12;19.40;99.90
22319;DHT22;11327;52.334;9.506;2023-07-29T03:40:32;19.40;99.90
22319;DHT22;11327;52.334;9.506;2023-07-29T03:43:53;19.30;99.90
22319;DHT22;11327;52.334;9.506;2023-07-29T03:47:14;19.30;99.90
22319;DHT22;11327;52.334;9.506;2023-07-29T03:50:35;19.30;99.90
22319;DHT22;11327;52.334;9.506;2023-07-29T03:53:56;19.30;99.90
22319;DHT22;11327;52.334;9.506;2023-07-29T03:57:17;19.30;99.90
22319;DHT22;11327;52.334;9.506;2023-07-29T04:00:37;19.30;99.90
22319;DHT22;11327;52.334;9.506;2023-07-29T04:03:59;19.40;99.90
22319;DHT22;11327;52.334;9.506;2023-07-29T04:07:20;19.40;99.90
22319;DHT22;11327;52.334;9.506;2023-07-29T04:10:40;19.40;99.90
22319;DHT22;11327;52.334;9.506;2023-07-29T04:14:01;19.40;99.90
22319;DHT22;11327;52.334;9.506;2023-07-29T04:17:22;19.40;99.90
22319;DHT22;11327;52.334;9.506;2023-07-29T04:20:43;19.30;99.90
22319;DHT22;11327;52.334;9.506;2023-07-29T04:24:04;19.40;99.90
22319;DHT22;11327;52.334;9.506;2023-07-29T04:27:25;19.40;99.90
22319;DHT22;11327;52.334;9.506;2023-07-29T04:30:45;19.50;99.90
22319;DHT22;11327;52.334;9.506;2023-07-29T04:34:06;19.40;99.90
22319;DHT22;11327;52.334;9.506;2023-07-29T04:37:27;19.40;99.90
22319;DHT22;11327;52.334;9.506;2023-07-29T04:40:51;19.50;99.90
22319;DHT22;11327;52.334;9.506;2023-07-29T04:44:11;19.50;99.90
22319;DHT22;11327;52.334;9.506;2023-07-29T04:47:32;19.50;99.90
22319;DHT22;11327;52.334;9.506;2023-07-29T04:50:53;19.50;99.90
22319;DHT22;11327;52.334;9.506;2023-07-29T04:54:13;19.50;99.90
22319;DHT22;11327;52.334;9.506;2023-07-29T04:57:34;19.40;99.90
22319;DHT22;11327;52.334;9.506;2023-07-29T05:00:55;19.30;99.90
22319;DHT22;11327;52.334;9.506;2023-07-29T05:04:16;19.30;99.90
22319;DHT22;11327;52.334;9.506;2023-07-29T05:07:37;19.40;99.90
22319;DHT22;11327;52.334;9.506;2023-07-29T05:10:58;19.40;99.90
22319;DHT22;11327;52.334;9.506;2023-07-29T05:14:19;19.40;99.90
22319;DHT22;11327;52.334;9.506;2023-07-29T05:17:40;19.30;99.90
22319;DHT22;11327;52.334;9.506;2023-07-29T05:21:00;19.40;99.90
22319;DHT22;11327;52.334;9.506;2023-07-29T05:24:21;19.40;99.90
22319;DHT22;11327;52.334;9.506;2023-07-29T05:27:42;19.40;99.90
22319;DHT22;11327;52.334;9.506;2023-07-29T05:31:02;19.40;99.90
22319;DHT22;11327;52.334;9.506;2023-07-29T05:34:23;19.50;99.90
22319;DHT22;11327;52.334;9.506;2023-07-29T05:37:44;19.50;99.90
22319;DHT22;11327;52.334;9.506;2023-07-29T05:41:05;19.50;99.90
22319;DHT22;11327;52.334;9.506;2023-07-29T05:44:25;19.50;99.90
22319;DHT22;11327;52.334;9.506;2023-07-29T05:47:46;19.60;99.90
22319;DHT22;11327;52.334;9.506;2023-07-29T05:51:07;19.60;99.90
22319;DHT22;11327;52.334;9.506;2023-07-29T05:54:27;19.60;99.90
22319;DHT22;11327;52.334;9.506;2023-07-29T05:57:48;19.60;99.90
22319;DHT22;11327;52.334;9.506;2023-07-29T06:01:09;19.60;99.90
22319;DHT22;11327;52.334;9.506;2023-07-29T06:04:29;19.60;99.90
22319;DHT22;11327;52.334;9.506;2023-07-29T06:07:50;19.70;99.90
22319;DHT22;11327;52.334;9.506;2023-07-29T06:11:11;19.70;99.90
22319;DHT22;11327;52.334;9.506;2023-07-29T06:14:32;19.70;99.90
22319;DHT22;11327;52.334;9.506;2023-07-29T06:17:53;19.70;99.90
22319;DHT22;11327;52.334;9.506;2023-07-29T06:21:13;19.70;99.90
22319;DHT22;11327;52.334;9.506;2023-07-29T06:24:36;19.70;99.90
22319;DHT22;11327;52.334;9.506;2023-07-29T06:27:57;19.70;99.90
22319;DHT22;11327;52.334;9.506;2023-07-29T06:31:18;19.80;99.90
22319;DHT22;11327;52.334;9.506;2023-07-29T06:34:39;19.90;99.90
22319;DHT22;11327;52.334;9.506;2023-07-29T06:38:00;19.90;99.90
22319;DHT22;11327;52.334;9.506;2023-07-29T06:41:20;20.00;99.90
22319;DHT22;11327;52.334;9.506;2023-07-29T06:44:41;20.00;99.90
22319;DHT22;11327;52.334;9.506;2023-07-29T06:48:02;20.00;99.90
22319;DHT22;11327;52.334;9.506;2023-07-29T06:51:23;20.20;99.90
22319;DHT22;11327;52.334;9.506;2023-07-29T06:54:44;20.30;99.90
22319;DHT22;11327;52.334;9.506;2023-07-29T06:58:04;20.30;99.90
22319;DHT22;11327;52.334;9.506;2023-07-29T07:01:25;20.30;99.90
22319;DHT22;11327;52.334;9.506;2023-07-29T07:04:46;20.30;99.90
22319;DHT22;11327;52.334;9.506;2023-07-29T07:08:06;20.30;99.90
22319;DHT22;11327;52.334;9.506;2023-07-29T07:11:27;20.40;99.90
22319;DHT22;11327;52.334;9.506;2023-07-29T07:14:48;20.50;99.90
22319;DHT22;11327;52.334;9.506;2023-07-29T07:18:09;20.50;99.90
22319;DHT22;11327;52.334;9.506;2023-07-29T07:21:30;20.40;99.90
22319;DHT22;11327;52.334;9.506;2023-07-29T07:24:50;20.50;99.90
22319;DHT22;11327;52.334;9.506;2023-07-29T07:28:11;20.50;99.90
22319;DHT22;11327;52.334;9.506;2023-07-29T07:31:35;20.60;99.90
22319;DHT22;11327;52.334;9.506;2023-07-29T07:34:56;20.50;99.90
22319;DHT22;11327;52.334;9.506;2023-07-29T07:38:16;20.60;99.90
22319;DHT22;11327;52.334;9.506;2023-07-29T07:41:37;20.70;99.90
22319;DHT22;11327;52.334;9.506;2023-07-29T07:44:58;20.80;99.90
22319;DHT22;11327;52.334;9.506;2023-07-29T07:48:18;20.90;99.90
22319;DHT22;11327;52.334;9.506;2023-07-29T07:51:40;20.90;99.90
22319;DHT22;11327;52.334;9.506;2023-07-29T07:55:01;20.90;99.90
22319;DHT22;11327;52.334;9.506;2023-07-29T07:58:22;21.00;99.90
22319;DHT22;11327;52.334;9.506;2023-07-29T08:01:43;21.00;99.90
22319;DHT22;11327;52.334;9.506;2023-07-29T08:05:04;21.00;99.90
22319;DHT22;11327;52.334;9.506;2023-07-29T08:08:26;21.00;99.90
22319;DHT22;11327;52.334;9.506;2023-07-29T08:11:47;21.10;99.90
22319;DHT22;11327;52.334;9.506;2023-07-29T08:15:08;20.90;99.90
22319;DHT22;11327;52.334;9.506;2023-07-29T08:18:29;21.00;99.90
22319;DHT22;11327;52.334;9.506;2023-07-29T08:21:49;20.90;99.90
22319;DHT22;11327;52.334;9.506;2023-07-29T08:25:10;20.90;99.90
22319;DHT22;11327;52.334;9.506;2023-07-29T08:28:33;20.90;99.90
22319;DHT22;11327;52.334;9.506;2023-07-29T08:31:54;20.90;99.90
22319;DHT22;11327;52.334;9.506;2023-07-29T08:35:16;20.90;99.90
22319;DHT22;11327;52.334;9.506;2023-07-29T08:38:36;21.00;99.90
22319;DHT22;11327;52.334;9.506;2023-07-29T08:45:23;21.00;99.90
22319;DHT22;11327;52.334;9.506;2023-07-29T08:48:45;21.30;99.90
22319;DHT22;11327;52.334;9.506;2023-07-29T08:52:07;21.30;99.90
22319;DHT22;11327;52.334;9.506;2023-07-29T08:55:30;21.40;99.90
22319;DHT22;11327;52.334;9.506;2023-07-29T08:58:52;21.40;99.90
22319;DHT22;11327;52.334;9.506;2023-07-29T09:02:13;21.40;99.90
22319;DHT22;11327;52.334;9.506;2023-07-29T09:05:34;21.40;99.90
22319;DHT22;11327;52.334;9.506;2023-07-29T09:08:55;21.40;99.90
22319;DHT22;11327;52.334;9.506;2023-07-29T09:12:19;21.50;99.90
22319;DHT22;11327;52.334;9.506;2023-07-29T09:15:40;21.70;99.90
22319;DHT22;11327;52.334;9.506;2023-07-29T09:19:02;21.70;99.90
22319;DHT22;11327;52.334;9.506;2023-07-29T09:22:24;21.70;99.90
22319;DHT22;11327;52.334;9.506;2023-07-29T09:25:46;21.60;99.90
22319;DHT22;11327;52.334;9.506;2023-07-29T09:29:08;21.60;99.90
22319;DHT22;11327;52.334;9.506;2023-07-29T09:32:28;21.50;99.90
22319;DHT22;11327;52.334;9.506;2023-07-29T09:35:49;21.60;99.90
22319;DHT22;11327;52.334;9.506;2023-07-29T09:39:12;21.90;99.90
22319;DHT22;11327;52.334;9.506;2023-07-29T09:42:36;22.20;99.90
22319;DHT22;11327;52.334;9.506;2023-07-29T09:46:05;22.50;99.90
22319;DHT22;11327;52.334;9.506;2023-07-29T09:49:24;22.60;99.90
22319;DHT22;11327;52.334;9.506;2023-07-29T09:52:45;22.60;99.90
22319;DHT22;11327;52.334;9.506;2023-07-29T09:56:08;22.70;99.90
22319;DHT22;11327;52.334;9.506;2023-07-29T09:59:34;22.80;99.90
22319;DHT22;11327;52.334;9.506;2023-07-29T10:02:55;22.90;99.90
22319;DHT22;11327;52.334;9.506;2023-07-29T10:06:17;23.20;99.90
22319;DHT22;11327;52.334;9.506;2023-07-29T10:09:39;23.30;99.90
22319;DHT22;11327;52.334;9.506;2023-07-29T10:13:00;23.40;99.90
22319;DHT22;11327;52.334;9.506;2023-07-29T10:16:23;23.40;99.90
22319;DHT22;11327;52.334;9.506;2023-07-29T10:19:46;23.50;99.90
22319;DHT22;11327;52.334;9.506;2023-07-29T10:23:08;23.90;99.90
22319;DHT22;11327;52.334;9.506;2023-07-29T10:26:31;24.20;99.90
22319;DHT22;11327;52.334;9.506;2023-07-29T10:29:55;24.30;99.90
22319;DHT22;11327;52.334;9.506;2023-07-29T10:33:16;24.50;99.90
22319;DHT22;11327;52.334;9.506;2023-07-29T10:36:37;24.50;99.90
22319;DHT22;11327;52.334;9.506;2023-07-29T10:39:58;24.40;99.90
22319;DHT22;11327;52.334;9.506;2023-07-29T10:43:23;24.30;99.90
22319;DHT22;11327;52.334;9.506;2023-07-29T10:46:42;24.30;99.90
22319;DHT22;11327;52.334;9.506;2023-07-29T10:50:16;24.30;99.90
22319;DHT22;11327;52.334;9.506;2023-07-29T10:53:30;24.20;99.90
22319;DHT22;11327;52.334;9.506;2023-07-29T10:56:51;24.10;99.90
22319;DHT22;11327;52.334;9.506;2023-07-29T11:00:13;24.10;99.90
22319;DHT22;11327;52.334;9.506;2023-07-29T11:03:36;24.10;99.90
22319;DHT22;11327;52.334;9.506;2023-07-29T11:10:28;24.20;99.90
22319;DHT22;11327;52.334;9.506;2023-07-29T11:13:49;24.50;99.90
22319;DHT22;11327;52.334;9.506;2023-07-29T11:17:10;24.50;99.90
22319;DHT22;11327;52.334;9.506;2023-07-29T11:20:32;24.30;99.90
22319;DHT22;11327;52.334;9.506;2023-07-29T11:23:53;24.40;99.90
22319;DHT22;11327;52.334;9.506;2023-07-29T11:27:14;24.60;99.90
22319;DHT22;11327;52.334;9.506;2023-07-29T11:30:39;24.70;99.90
22319;DHT22;11327;52.334;9.506;2023-07-29T11:34:00;24.80;99.90
22319;DHT22;11327;52.334;9.506;2023-07-29T11:37:21;24.70;99.90
22319;DHT22;11327;52.334;9.506;2023-07-29T11:40:42;24.90;99.90
22319;DHT22;11327;52.334;9.506;2023-07-29T11:44:03;25.20;99.90
22319;DHT22;11327;52.334;9.506;2023-07-29T11:47:24;25.30;99.90
22319;DHT22;11327;52.334;9.506;2023-07-29T11:50:45;25.20;99.90
22319;DHT22;11327;52.334;9.506;2023-07-29T11:54:06;25.20;99.90
22319;DHT22;11327;52.334;9.506;2023-07-29T11:57:27;25.00;99.90
22319;DHT22;11327;52.334;9.506;2023-07-29T12:00:48;24.90;99.90
22319;DHT22;11327;52.334;9.506;2023-07-29T12:04:09;24.70;99.90
22319;DHT22;11327;52.334;9.506;2023-07-29T12:07:31;24.70;99.90
22319;DHT22;11327;52.334;9.506;2023-07-29T12:10:52;24.80;99.90
22319;DHT22;11327;52.334;9.506;2023-07-29T12:14:13;24.80;99.90
22319;DHT22;11327;52.334;9.506;2023-07-29T12:17:41;25.00;99.90
22319;DHT22;11327;52.334;9.506;2023-07-29T12:21:03;25.00;99.90
22319;DHT22;11327;52.334;9.506;2023-07-29T12:24:23;25.10;99.90
22319;DHT22;11327;52.334;9.506;2023-07-29T12:27:44;25.20;99.90
22319;DHT22;11327;52.334;9.506;2023-07-29T12:31:07;25.50;99.90
22319;DHT22;11327;52.334;9.506;2023-07-29T12:34:29;25.60;99.90
22319;DHT22;11327;52.334;9.506;2023-07-29T12:38:00;25.80;99.90
22319;DHT22;11327;52.334;9.506;2023-07-29T12:41:20;25.70;99.90
22319;DHT22;11327;52.334;9.506;2023-07-29T12:44:41;25.70;99.90
22319;DHT22;11327;52.334;9.506;2023-07-29T12:48:02;25.80;99.90
22319;DHT22;11327;52.334;9.506;2023-07-29T12:51:23;25.70;99.90
22319;DHT22;11327;52.334;9.506;2023-07-29T12:54:43;26.00;99.90
22319;DHT22;11327;52.334;9.506;2023-07-29T12:58:04;26.00;99.90
22319;DHT22;11327;52.334;9.506;2023-07-29T13:01:26;25.90;99.90
22319;DHT22;11327;52.334;9.506;2023-07-29T13:04:46;26.00;99.90
22319;DHT22;11327;52.334;9.506;2023-07-29T13:08:07;26.00;99.90
22319;DHT22;11327;52.334;9.506;2023-07-29T13:11:28;26.10;99.90
22319;DHT22;11327;52.334;9.506;2023-07-29T13:14:49;26.20;99.90
22319;DHT22;11327;52.334;9.506;2023-07-29T13:18:09;26.30;99.90
22319;DHT22;11327;52.334;9.506;2023-07-29T13:21:30;26.60;99.90
22319;DHT22;11327;52.334;9.506;2023-07-29T13:24:53;26.50;99.90
22319;DHT22;11327;52.334;9.506;2023-07-29T13:28:14;26.70;99.90
22319;DHT22;11327;52.334;9.506;2023-07-29T13:31:35;26.70;99.90
22319;DHT22;11327;52.334;9.506;2023-07-29T13:34:55;26.50;99.90
22319;DHT22;11327;52.334;9.506;2023-07-29T13:38:16;26.30;99.90
22319;DHT22;11327;52.334;9.506;2023-07-29T13:41:37;26.10;99.90
22319;DHT22;11327;52.334;9.506;2023-07-29T13:44:57;26.00;99.90
22319;DHT22;11327;52.334;9.506;2023-07-29T13:48:19;25.90;99.90
22319;DHT22;11327;52.334;9.506;2023-07-29T13:51:40;25.90;99.90
22319;DHT22;11327;52.334;9.506;2023-07-29T13:55:04;25.80;99.90
22319;DHT22;11327;52.334;9.506;2023-07-29T13:58:25;25.70;99.90
22319;DHT22;11327;52.334;9.506;2023-07-29T14:01:46;25.70;99.90
22319;DHT22;11327;52.334;9.506;2023-07-29T14:05:07;26.00;99.90
22319;DHT22;11327;52.334;9.506;2023-07-29T14:08:28;26.20;99.90
22319;DHT22;11327;52.334;9.506;2023-07-29T14:11:49;26.30;99.90
22319;DHT22;11327;52.334;9.506;2023-07-29T14:15:10;26.50;99.90
22319;DHT22;11327;52.334;9.506;2023-07-29T14:18:31;26.70;99.90
22319;DHT22;11327;52.334;9.506;2023-07-29T14:21:51;26.40;99.90
22319;DHT22;11327;52.334;9.506;2023-07-29T14:25:12;26.00;99.90
22319;DHT22;11327;52.334;9.506;2023-07-29T14:28:34;25.80;99.90
22319;DHT22;11327;52.334;9.506;2023-07-29T14:31:55;25.90;99.90
22319;DHT22;11327;52.334;9.506;2023-07-29T14:35:16;25.90;99.90
22319;DHT22;11327;52.334;9.506;2023-07-29T14:38:37;25.50;99.90
22319;DHT22;11327;52.334;9.506;2023-07-29T14:41:57;25.40;99.90
22319;DHT22;11327;52.334;9.506;2023-07-29T14:45:18;25.20;99.90
22319;DHT22;11327;52.334;9.506;2023-07-29T14:48:39;25.30;99.90
22319;DHT22;11327;52.334;9.506;2023-07-29T14:52:00;25.40;99.90
22319;DHT22;11327;52.334;9.506;2023-07-29T14:55:20;25.60;99.90
22319;DHT22;11327;52.334;9.506;2023-07-29T14:58:41;25.70;99.90
22319;DHT22;11327;52.334;9.506;2023-07-29T15:02:04;25.70;99.90
22319;DHT22;11327;52.334;9.506;2023-07-29T15:05:25;25.80;99.90
22319;DHT22;11327;52.334;9.506;2023-07-29T15:08:45;26.00;99.90
22319;DHT22;11327;52.334;9.506;2023-07-29T15:12:07;26.00;99.90
22319;DHT22;11327;52.334;9.506;2023-07-29T15:15:28;26.10;99.90
22319;DHT22;11327;52.334;9.506;2023-07-29T15:18:49;26.10;99.90
22319;DHT22;11327;52.334;9.506;2023-07-29T15:22:09;26.00;99.90
22319;DHT22;11327;52.334;9.506;2023-07-29T15:25:30;26.00;99.90
22319;DHT22;11327;52.334;9.506;2023-07-29T15:28:51;25.90;99.90
22319;DHT22;11327;52.334;9.506;2023-07-29T15:32:11;25.90;99.90
22319;DHT22;11327;52.334;9.506;2023-07-29T15:35:39;25.90;99.90
22319;DHT22;11327;52.334;9.506;2023-07-29T15:39:00;25.70;99.90
22319;DHT22;11327;52.334;9.506;2023-07-29T15:42:20;25.60;99.90
22319;DHT22;11327;52.334;9.506;2023-07-29T15:45:41;25.60;99.90
22319;DHT22;11327;52.334;9.506;2023-07-29T15:49:02;25.30;99.90
22319;DHT22;11327;52.334;9.506;2023-07-29T15:52:23;25.10;99.90
22319;DHT22;11327;52.334;9.506;2023-07-29T15:55:44;24.90;99.90
22319;DHT22;11327;52.334;9.506;2023-07-29T15:59:05;24.80;99.90
22319;DHT22;11327;52.334;9.506;2023-07-29T16:02:26;24.70;99.90
22319;DHT22;11327;52.334;9.506;2023-07-29T16:05:46;24.60;99.90
22319;DHT22;11327;52.334;9.506;2023-07-29T16:09:07;24.50;99.90
22319;DHT22;11327;52.334;9.506;2023-07-29T16:12:28;24.40;99.90
22319;DHT22;11327;52.334;9.506;2023-07-29T16:15:49;24.40;99.90
22319;DHT22;11327;52.334;9.506;2023-07-29T16:19:10;24.40;99.90
22319;DHT22;11327;52.334;9.506;2023-07-29T16:22:30;24.40;99.90
22319;DHT22;11327;52.334;9.506;2023-07-29T16:25:51;24.40;99.90
22319;DHT22;11327;52.334;9.506;2023-07-29T16:29:12;24.30;99.90
22319;DHT22;11327;52.334;9.506;2023-07-29T16:32:32;24.30;99.90
22319;DHT22;11327;52.334;9.506;2023-07-29T16:35:53;24.30;99.90
22319;DHT22;11327;52.334;9.506;2023-07-29T16:39:14;24.30;99.90
22319;DHT22;11327;52.334;9.506;2023-07-29T16:42:35;24.10;99.90
22319;DHT22;11327;52.334;9.506;2023-07-29T16:45:55;23.30;99.90
22319;DHT22;11327;52.334;9.506;2023-07-29T16:49:16;22.50;99.90
22319;DHT22;11327;52.334;9.506;2023-07-29T16:52:37;22.00;99.90
22319;DHT22;11327;52.334;9.506;2023-07-29T16:55:57;21.80;99.90
22319;DHT22;11327;52.334;9.506;2023-07-29T16:59:18;21.70;99.90
22319;DHT22;11327;52.334;9.506;2023-07-29T17:02:39;21.80;99.90
22319;DHT22;11327;52.334;9.506;2023-07-29T17:05:59;21.90;99.90
22319;DHT22;11327;52.334;9.506;2023-07-29T17:09:20;22.00;99.90
22319;DHT22;11327;52.334;9.506;2023-07-29T17:12:41;22.10;99.90
22319;DHT22;11327;52.334;9.506;2023-07-29T17:16:01;22.10;99.90
22319;DHT22;11327;52.334;9.506;2023-07-29T17:19:22;22.00;99.90
22319;DHT22;11327;52.334;9.506;2023-07-29T17:22:43;21.80;99.90
22319;DHT22;11327;52.334;9.506;2023-07-29T17:26:04;21.80;99.90
22319;DHT22;11327;52.334;9.506;2023-07-29T17:29:25;21.60;99.90
22319;DHT22;11327;52.334;9.506;2023-07-29T17:32:46;21.60;99.90
22319;DHT22;11327;52.334;9.506;2023-07-29T17:36:06;21.50;99.90
22319;DHT22;11327;52.334;9.506;2023-07-29T17:39:27;21.50;99.90
22319;DHT22;11327;52.334;9.506;2023-07-29T17:42:48;21.50;99.90
22319;DHT22;11327;52.334;9.506;2023-07-29T17:46:09;21.50;99.90
22319;DHT22;11327;52.334;9.506;2023-07-29T17:49:30;21.40;99.90
22319;DHT22;11327;52.334;9.506;2023-07-29T17:52:51;21.40;99.90
22319;DHT22;11327;52.334;9.506;2023-07-29T17:56:12;21.30;99.90
22319;DHT22;11327;52.334;9.506;2023-07-29T17:59:33;21.20;99.90
22319;DHT22;11327;52.334;9.506;2023-07-29T18:02:53;21.20;99.90
22319;DHT22;11327;52.334;9.506;2023-07-29T18:06:16;21.00;99.90
22319;DHT22;11327;52.334;9.506;2023-07-29T18:09:37;21.00;99.90
22319;DHT22;11327;52.334;9.506;2023-07-29T18:12:58;21.00;99.90
22319;DHT22;11327;52.334;9.506;2023-07-29T18:16:21;20.90;99.90
22319;DHT22;11327;52.334;9.506;2023-07-29T18:19:43;20.90;99.90
22319;DHT22;11327;52.334;9.506;2023-07-29T18:23:04;20.90;99.90
22319;DHT22;11327;52.334;9.506;2023-07-29T18:26:25;20.80;99.90
22319;DHT22;11327;52.334;9.506;2023-07-29T18:29:46;20.80;99.90
22319;DHT22;11327;52.334;9.506;2023-07-29T18:33:07;20.80;99.90
22319;DHT22;11327;52.334;9.506;2023-07-29T18:36:28;20.60;99.90
22319;DHT22;11327;52.334;9.506;2023-07-29T18:39:50;20.70;99.90
22319;DHT22;11327;52.334;9.506;2023-07-29T18:43:11;20.60;99.90
22319;DHT22;11327;52.334;9.506;2023-07-29T18:46:32;20.50;99.90
22319;DHT22;11327;52.334;9.506;2023-07-29T18:49:52;20.50;99.90
22319;DHT22;11327;52.334;9.506;2023-07-29T18:53:13;20.50;99.90
22319;DHT22;11327;52.334;9.506;2023-07-29T18:56:34;20.30;99.90
22319;DHT22;11327;52.334;9.506;2023-07-29T18:59:55;20.40;99.90
22319;DHT22;11327;52.334;9.506;2023-07-29T19:03:16;20.20;99.90
22319;DHT22;11327;52.334;9.506;2023-07-29T19:06:37;20.30;99.90
22319;DHT22;11327;52.334;9.506;2023-07-29T19:09:57;20.20;99.90
22319;DHT22;11327;52.334;9.506;2023-07-29T19:13:18;20.20;99.90
22319;DHT22;11327;52.334;9.506;2023-07-29T19:16:40;20.10;99.90
22319;DHT22;11327;52.334;9.506;2023-07-29T19:20:02;20.10;99.90
22319;DHT22;11327;52.334;9.506;2023-07-29T19:23:23;20.10;99.90
22319;DHT22;11327;52.334;9.506;2023-07-29T19:26:44;20.00;99.90
22319;DHT22;11327;52.334;9.506;2023-07-29T19:30:06;20.00;99.90
22319;DHT22;11327;52.334;9.506;2023-07-29T19:33:26;19.90;99.90
22319;DHT22;11327;52.334;9.506;2023-07-29T19:36:49;19.90;99.90
22319;DHT22;11327;52.334;9.506;2023-07-29T19:40:10;19.80;99.90
22319;DHT22;11327;52.334;9.506;2023-07-29T19:43:31;19.80;99.90
22319;DHT22;11327;52.334;9.506;2023-07-29T19:46:51;19.80;99.90
22319;DHT22;11327;52.334;9.506;2023-07-29T19:50:12;19.80;99.90
22319;DHT22;11327;52.334;9.506;2023-07-29T19:53:33;19.60;99.90
22319;DHT22;11327;52.334;9.506;2023-07-29T19:56:54;19.50;99.90
22319;DHT22;11327;52.334;9.506;2023-07-29T20:00:14;19.50;99.90
22319;DHT22;11327;52.334;9.506;2023-07-29T20:03:35;19.50;99.90
22319;DHT22;11327;52.334;9.506;2023-07-29T20:06:56;19.50;99.90
22319;DHT22;11327;52.334;9.506;2023-07-29T20:10:17;19.40;99.90
22319;DHT22;11327;52.334;9.506;2023-07-29T20:13:38;19.50;99.90
22319;DHT22;11327;52.334;9.506;2023-07-29T20:16:59;19.40;99.90
22319;DHT22;11327;52.334;9.506;2023-07-29T20:20:20;19.50;99.90
22319;DHT22;11327;52.334;9.506;2023-07-29T20:23:40;19.40;99.90
22319;DHT22;11327;52.334;9.506;2023-07-29T20:27:01;19.30;99.90
22319;DHT22;11327;52.334;9.506;2023-07-29T20:30:22;19.30;99.90
22319;DHT22;11327;52.334;9.506;2023-07-29T20:33:43;19.20;99.90
22319;DHT22;11327;52.334;9.506;2023-07-29T20:37:04;19.20;99.90
22319;DHT22;11327;52.334;9.506;2023-07-29T20:40:25;19.10;99.90
22319;DHT22;11327;52.334;9.506;2023-07-29T20:43:46;19.10;99.90
22319;DHT22;11327;52.334;9.506;2023-07-29T20:47:07;19.10;99.90
22319;DHT22;11327;52.334;9.506;2023-07-29T20:50:28;18.80;99.90
22319;DHT22;11327;52.334;9.506;2023-07-29T20:53:49;19.00;99.90
22319;DHT22;11327;52.334;9.506;2023-07-29T20:57:09;18.90;99.90
22319;DHT22;11327;52.334;9.506;2023-07-29T21:00:30;18.90;99.90
22319;DHT22;11327;52.334;9.506;2023-07-29T21:03:51;19.00;99.90
22319;DHT22;11327;52.334;9.506;2023-07-29T21:07:11;19.00;99.90
22319;DHT22;11327;52.334;9.506;2023-07-29T21:10:32;19.00;99.90
22319;DHT22;11327;52.334;9.506;2023-07-29T21:13:53;18.90;99.90
22319;DHT22;11327;52.334;9.506;2023-07-29T21:17:14;18.80;99.90
22319;DHT22;11327;52.334;9.506;2023-07-29T21:20:34;18.80;99.90
22319;DHT22;11327;52.334;9.506;2023-07-29T21:23:55;18.80;99.90
22319;DHT22;11327;52.334;9.506;2023-07-29T21:27:16;18.80;99.90